Terminal Aerodrome Forecast
Issued by NWS Brownsville, TX

Home | Current Version | Previous Version | Text Only | Print | Product List | Glossary On
Versions: 1 2 3 4 5 6 7 8 9 10 11 12 13 14 15 16 17 18 19 20 21 22 23 24
069
FTUS44 KBRO 070051 AAA
TAFBRO
TAF AMD
KBRO 070051Z 0701/0724 36008KT P6SM SKC
     FM070300 34004KT P6SM SKC
     FM071700 18005KT P6SM SKC=

USA.gov is the U.S. government's official web portal to all federal, state and local government web resources and services.